createdAt,value
2018-08-13T00:00:26.695Z,41.93
2018-08-13T00:00:58.758Z,42.03
2018-08-13T00:01:30.826Z,42.03
2018-08-13T00:02:02.870Z,42.03
2018-08-13T00:02:34.931Z,41.93
2018-08-13T00:03:06.999Z,42.03
2018-08-13T00:03:39.075Z,41.93
2018-08-13T00:04:11.193Z,41.93
2018-08-13T00:04:43.236Z,42.03
2018-08-13T00:05:15.309Z,42.13
2018-08-13T00:05:47.437Z,41.93
2018-08-13T00:06:19.459Z,42.03
2018-08-13T00:06:51.473Z,42.03
2018-08-13T00:07:23.554Z,42.13
2018-08-13T00:07:55.618Z,41.93
2018-08-13T00:08:27.821Z,41.83
2018-08-13T00:08:59.890Z,42.03
2018-08-13T00:09:31.940Z,42.03
2018-08-13T00:10:03.958Z,42.13
2018-08-13T00:10:36.030Z,41.93
2018-08-13T00:11:08.062Z,42.03
2018-08-13T00:11:40.167Z,42.51
2018-08-13T00:12:12.233Z,41.93
2018-08-13T00:12:44.263Z,42.13
2018-08-13T00:13:16.329Z,41.93
2018-08-13T00:13:48.371Z,42.03
2018-08-13T00:14:20.417Z,42.13
2018-08-13T00:14:52.422Z,42.13
2018-08-13T00:15:24.485Z,42.22
2018-08-13T00:15:56.569Z,42.22
2018-08-13T00:16:28.644Z,42.03
2018-08-13T00:17:00.715Z,41.93
2018-08-13T00:17:32.827Z,42.03
2018-08-13T00:18:04.910Z,42.22
2018-08-13T00:18:36.950Z,42.22
2018-08-13T00:19:08.992Z,42.22
2018-08-13T00:19:41.034Z,42.13
2018-08-13T00:20:13.094Z,42.13
2018-08-13T00:20:45.736Z,42.13
2018-08-13T00:21:17.839Z,42.03
2018-08-13T00:21:49.861Z,42.13
2018-08-13T00:22:21.918Z,42.22
2018-08-13T00:22:54.072Z,42.13
2018-08-13T00:23:26.119Z,42.03
2018-08-13T00:23:58.135Z,42.03
2018-08-13T00:24:30.168Z,42.22
2018-08-13T00:25:02.277Z,42.32
2018-08-13T00:25:35.123Z,42.22
2018-08-13T00:26:07.167Z,42.03
2018-08-13T00:26:39.247Z,42.13
2018-08-13T00:27:11.319Z,42.13
2018-08-13T00:27:43.367Z,42.22
2018-08-13T00:28:15.391Z,42.13
2018-08-13T00:28:47.466Z,42.13
2018-08-13T00:29:19.561Z,42.32
2018-08-13T00:29:51.649Z,42.13
2018-08-13T00:30:23.709Z,42.32
2018-08-13T00:30:55.775Z,42.13
2018-08-13T00:31:27.829Z,42.32
2018-08-13T00:31:59.867Z,42.32
2018-08-13T00:32:31.900Z,42.22
2018-08-13T00:33:03.936Z,42.22
2018-08-13T00:33:35.987Z,42.32
2018-08-13T00:34:08.051Z,42.22
2018-08-13T00:34:40.128Z,42.32
2018-08-13T00:35:12.190Z,42.32
2018-08-13T00:35:44.221Z,42.22
2018-08-13T00:36:16.295Z,42.3
2018-08-13T00:36:48.369Z,42.32
2018-08-13T00:37:20.528Z,42.2
2018-08-13T00:37:52.651Z,42.22
2018-08-13T00:38:24.691Z,42.22
2018-08-13T00:38:56.750Z,42.32
2018-08-13T00:39:28.811Z,42.4
2018-08-13T00:40:00.846Z,42.3
2018-08-13T00:40:32.982Z,42.3
2018-08-13T00:41:05.024Z,42.3
2018-08-13T00:41:37.098Z,42.22
2018-08-13T00:42:09.159Z,42.3
2018-08-13T00:42:41.208Z,42.32
2018-08-13T00:43:13.279Z,42.22
2018-08-13T00:43:45.360Z,42.32
2018-08-13T00:44:17.418Z,42.22
2018-08-13T00:44:49.506Z,42.22
2018-08-13T00:45:21.544Z,42.3
2018-08-13T00:45:53.621Z,42.2
2018-08-13T00:46:25.681Z,42.32
2018-08-13T00:46:57.726Z,42.22
2018-08-13T00:47:29.769Z,42.2
2018-08-13T00:48:01.856Z,42.22
2018-08-13T00:48:33.897Z,42.3
2018-08-13T00:49:05.902Z,42.3
2018-08-13T00:49:37.967Z,42.2
2018-08-13T00:50:10.039Z,42.32
2018-08-13T00:50:42.250Z,42.3
2018-08-13T00:51:14.426Z,42.32
2018-08-13T00:51:46.509Z,42.2
2018-08-13T00:52:18.534Z,42.3
2018-08-13T00:52:50.575Z,42.3
2018-08-13T00:53:22.598Z,42.3
2018-08-13T00:53:54.701Z,42.3
2018-08-13T00:54:26.779Z,42.4
2018-08-13T00:54:58.821Z,42.3
2018-08-13T00:55:30.929Z,42.1
2018-08-13T00:56:02.957Z,42.32
2018-08-13T00:56:34.981Z,42.4
2018-08-13T00:57:06.949Z,42.4
2018-08-13T00:57:39.015Z,42.3
2018-08-13T00:58:11.059Z,42.4
2018-08-13T00:58:43.093Z,42.3
2018-08-13T00:59:15.193Z,42.3
2018-08-13T00:59:47.382Z,42.3
2018-08-13T01:00:19.457Z,42.4
2018-08-13T01:00:51.500Z,42.49
2018-08-13T01:01:23.616Z,42.49
2018-08-13T01:01:55.777Z,42.3
2018-08-13T01:02:27.848Z,42.4
2018-08-13T01:02:59.880Z,42.4
2018-08-13T01:03:31.943Z,42.49
2018-08-13T01:04:04.013Z,42.3
2018-08-13T01:04:36.104Z,42.3
2018-08-13T01:05:08.198Z,42.3
2018-08-13T01:05:40.276Z,42.4
2018-08-13T01:06:12.319Z,42.4
2018-08-13T01:06:44.400Z,42.4
2018-08-13T01:07:16.475Z,42.4
2018-08-13T01:07:48.705Z,42.4
2018-08-13T01:08:20.837Z,42.4
2018-08-13T01:08:53.010Z,42.4
2018-08-13T01:09:25.206Z,42.4
2018-08-13T01:09:57.317Z,42.4
2018-08-13T01:10:29.338Z,42.3
2018-08-13T01:11:01.405Z,42.4
2018-08-13T01:11:33.486Z,42.4
2018-08-13T01:12:05.537Z,42.4
2018-08-13T01:12:37.613Z,42.4
2018-08-13T01:13:09.677Z,42.4
2018-08-13T01:13:41.712Z,42.4
2018-08-13T01:14:13.786Z,42.3
2018-08-13T01:14:45.807Z,42.3
2018-08-13T01:15:17.834Z,42.4
2018-08-13T01:15:49.916Z,42.4
2018-08-13T01:16:21.993Z,42.4
2018-08-13T01:16:54.048Z,42.4
2018-08-13T01:17:26.186Z,42.49
2018-08-13T01:17:58.249Z,42.4
2018-08-13T01:18:30.378Z,42.59
2018-08-13T01:19:02.404Z,42.4
2018-08-13T01:19:34.467Z,42.4
2018-08-13T01:20:06.548Z,42.49
2018-08-13T01:20:38.700Z,42.4
2018-08-13T01:21:10.745Z,42.3
2018-08-13T01:21:42.782Z,42.4
2018-08-13T01:22:14.861Z,42.68
2018-08-13T01:22:46.956Z,42.4
2018-08-13T01:23:19.009Z,42.68
2018-08-13T01:23:51.063Z,42.4
2018-08-13T01:24:23.103Z,42.3
2018-08-13T01:24:55.224Z,42.59
2018-08-13T01:25:27.301Z,42.49
2018-08-13T01:25:59.382Z,42.59
2018-08-13T01:26:31.449Z,42.49
2018-08-13T01:27:03.554Z,42.49
2018-08-13T01:27:35.687Z,42.68
2018-08-13T01:28:07.760Z,42.49
2018-08-13T01:28:39.842Z,42.49
2018-08-13T01:29:11.923Z,42.49
2018-08-13T01:29:43.997Z,42.37
2018-08-13T01:30:16.073Z,42.59
2018-08-13T01:30:48.137Z,42.59
2018-08-13T01:31:20.197Z,42.59
2018-08-13T01:31:52.249Z,42.59
2018-08-13T01:32:24.267Z,42.59
2018-08-13T01:32:56.343Z,42.49
2018-08-13T01:33:28.393Z,42.68
2018-08-13T01:34:00.425Z,42.68
2018-08-13T01:34:33.195Z,42.68
2018-08-13T01:35:05.270Z,42.4
2018-08-13T01:35:37.375Z,42.49
2018-08-13T01:36:09.408Z,42.49
2018-08-13T01:36:41.475Z,42.4
2018-08-13T01:37:13.500Z,42.57
2018-08-13T01:37:45.581Z,42.49
2018-08-13T01:38:17.607Z,42.49
2018-08-13T01:38:49.670Z,42.49
2018-08-13T01:39:21.713Z,42.68
2018-08-13T01:39:53.782Z,42.57
2018-08-13T01:40:25.858Z,42.78
2018-08-13T01:40:57.948Z,42.59
2018-08-13T01:41:30.042Z,42.59
2018-08-13T01:42:02.135Z,42.78
2018-08-13T01:42:34.199Z,42.78
2018-08-13T01:43:06.234Z,42.59
2018-08-13T01:43:38.310Z,42.4
2018-08-13T01:44:10.426Z,42.49
2018-08-13T01:44:42.493Z,42.68
2018-08-13T01:45:14.564Z,42.49
2018-08-13T01:45:46.632Z,42.66
2018-08-13T01:46:18.703Z,42.59
2018-08-13T01:46:50.748Z,42.47
2018-08-13T01:47:22.795Z,42.76
2018-08-13T01:47:54.828Z,42.59
2018-08-13T01:48:26.912Z,42.68
2018-08-13T01:48:58.982Z,42.78
2018-08-13T01:49:31.032Z,42.57
2018-08-13T01:50:03.116Z,42.66
2018-08-13T01:50:35.178Z,42.66
2018-08-13T01:51:07.266Z,42.66
2018-08-13T01:51:39.318Z,42.47
2018-08-13T01:52:11.381Z,42.57
2018-08-13T01:52:43.426Z,42.47
2018-08-13T01:53:16.366Z,42.47
2018-08-13T01:53:48.416Z,42.47
2018-08-13T01:54:20.507Z,42.37
2018-08-13T01:54:52.558Z,42.37
2018-08-13T01:55:24.632Z,42.57
2018-08-13T01:55:56.678Z,42.57
2018-08-13T01:56:28.728Z,42.47
2018-08-13T01:57:00.873Z,42.57
2018-08-13T01:57:32.890Z,42.76
2018-08-13T01:58:04.955Z,42.57
2018-08-13T01:58:37.068Z,42.57
2018-08-13T01:59:09.182Z,42.57
2018-08-13T01:59:41.240Z,42.47
2018-08-13T02:00:13.328Z,42.57
2018-08-13T02:00:45.362Z,42.57
2018-08-13T02:01:17.420Z,42.66
2018-08-13T02:01:49.618Z,42.57
2018-08-13T02:02:21.938Z,42.37
2018-08-13T02:02:54.112Z,42.37
2018-08-13T02:03:26.153Z,42.47
2018-08-13T02:03:58.319Z,42.76
2018-08-13T02:04:30.357Z,42.47
2018-08-13T02:05:02.430Z,42.37
2018-08-13T02:05:34.483Z,42.37
2018-08-13T02:06:06.582Z,42.57
2018-08-13T02:06:38.650Z,42.47
2018-08-13T02:07:10.733Z,42.66
2018-08-13T02:07:42.780Z,42.57
2018-08-13T02:08:14.825Z,42.37
2018-08-13T02:08:46.938Z,42.76
2018-08-13T02:09:19.018Z,42.57
2018-08-13T02:09:51.103Z,42.57
2018-08-13T02:10:23.175Z,42.66
2018-08-13T02:10:55.956Z,42.66
2018-08-13T02:11:28.124Z,42.57
2018-08-13T02:12:00.804Z,42.57
2018-08-13T02:12:32.871Z,42.57
2018-08-13T02:13:04.950Z,42.57
2018-08-13T02:13:37.005Z,42.37
2018-08-13T02:14:09.058Z,42.57
2018-08-13T02:14:41.110Z,42.66
2018-08-13T02:15:13.204Z,42.47
2018-08-13T02:15:45.275Z,42.66
2018-08-13T02:16:17.355Z,42.66
2018-08-13T02:16:49.430Z,42.66
2018-08-13T02:17:21.469Z,42.57
2018-08-13T02:17:53.523Z,42.66
2018-08-13T02:18:25.548Z,42.57
2018-08-13T02:18:57.752Z,42.57
2018-08-13T02:19:29.814Z,42.66
2018-08-13T02:20:01.887Z,42.47
2018-08-13T02:20:33.939Z,42.57
2018-08-13T02:21:05.991Z,42.66
2018-08-13T02:21:38.075Z,42.57
2018-08-13T02:22:10.154Z,42.57
2018-08-13T02:22:42.199Z,42.47
2018-08-13T02:23:14.251Z,42.66
2018-08-13T02:23:46.328Z,42.66
2018-08-13T02:24:18.433Z,42.66
2018-08-13T02:24:50.459Z,42.57
2018-08-13T02:25:22.496Z,42.57
2018-08-13T02:25:54.565Z,42.66
2018-08-13T02:26:26.668Z,42.66
2018-08-13T02:26:58.707Z,42.57
2018-08-13T02:27:30.782Z,42.57
2018-08-13T02:28:02.853Z,42.66
2018-08-13T02:28:34.917Z,42.76
2018-08-13T02:29:07.004Z,42.66
2018-08-13T02:29:39.071Z,42.66
2018-08-13T02:30:11.127Z,42.66
2018-08-13T02:30:43.212Z,42.57
2018-08-13T02:31:15.264Z,42.66
2018-08-13T02:31:47.322Z,42.66
2018-08-13T02:32:19.383Z,42.57
2018-08-13T02:32:51.411Z,42.57
2018-08-13T02:33:23.553Z,42.66
2018-08-13T02:33:55.632Z,42.66
2018-08-13T02:34:27.704Z,42.47
2018-08-13T02:34:59.776Z,42.76
2018-08-13T02:35:31.811Z,42.57
2018-08-13T02:36:03.883Z,42.66
2018-08-13T02:36:35.913Z,42.76
2018-08-13T02:37:07.960Z,42.76
2018-08-13T02:37:40.010Z,42.57
2018-08-13T02:38:12.087Z,42.76
2018-08-13T02:38:44.154Z,42.57
2018-08-13T02:39:16.408Z,42.66
2018-08-13T02:39:48.501Z,42.76
2018-08-13T02:40:20.585Z,42.57
2018-08-13T02:40:52.677Z,42.76
2018-08-13T02:41:24.727Z,42.57
2018-08-13T02:41:56.771Z,42.66
2018-08-13T02:42:28.850Z,42.66
2018-08-13T02:43:00.876Z,42.57
2018-08-13T02:43:32.940Z,42.66
2018-08-13T02:44:04.996Z,42.86
2018-08-13T02:44:37.062Z,42.66
2018-08-13T02:45:09.143Z,42.66
2018-08-13T02:45:41.196Z,42.57
2018-08-13T02:46:13.269Z,42.66
2018-08-13T02:46:45.357Z,42.86
2018-08-13T02:47:17.409Z,42.66
2018-08-13T02:47:49.455Z,42.76
2018-08-13T02:48:21.521Z,42.76
2018-08-13T02:48:53.564Z,42.86
2018-08-13T02:49:25.645Z,42.76
2018-08-13T02:49:57.700Z,42.66
2018-08-13T02:50:29.785Z,42.66
2018-08-13T02:51:01.783Z,42.76
2018-08-13T02:51:33.846Z,42.66
2018-08-13T02:52:05.890Z,42.76
2018-08-13T02:52:37.976Z,42.66
2018-08-13T02:53:10.212Z,42.76
2018-08-13T02:53:42.314Z,42.66
2018-08-13T02:54:14.454Z,42.57
2018-08-13T02:54:46.502Z,42.86
2018-08-13T02:55:18.579Z,42.76
2018-08-13T02:55:50.651Z,42.76
2018-08-13T02:56:22.704Z,42.66
2018-08-13T02:56:54.771Z,42.86
2018-08-13T02:57:26.813Z,42.66
2018-08-13T02:57:58.962Z,42.47
2018-08-13T02:58:30.986Z,42.76
2018-08-13T02:59:03.079Z,42.86
2018-08-13T02:59:35.081Z,42.66
2018-08-13T03:00:07.152Z,42.86
2018-08-13T03:00:39.296Z,42.96
2018-08-13T03:01:11.433Z,42.76
2018-08-13T03:01:43.471Z,42.86
2018-08-13T03:02:15.545Z,42.86
2018-08-13T03:02:47.615Z,42.76
2018-08-13T03:03:19.701Z,42.96
2018-08-13T03:03:51.750Z,42.86
2018-08-13T03:04:23.817Z,42.96
2018-08-13T03:04:55.918Z,42.66
2018-08-13T03:05:27.983Z,42.66
2018-08-13T03:06:00.042Z,42.86
2018-08-13T03:06:32.090Z,42.86
2018-08-13T03:07:04.165Z,42.83
2018-08-13T03:07:36.227Z,42.86
2018-08-13T03:08:08.451Z,42.86
2018-08-13T03:08:40.533Z,42.86
2018-08-13T03:09:12.568Z,42.66
2018-08-13T03:09:44.621Z,42.83
2018-08-13T03:10:16.681Z,42.76
2018-08-13T03:10:48.816Z,42.76
2018-08-13T03:11:20.913Z,42.86
2018-08-13T03:11:52.980Z,42.76
2018-08-13T03:12:25.043Z,42.86
2018-08-13T03:12:57.116Z,42.86
2018-08-13T03:13:29.184Z,42.76
2018-08-13T03:14:01.372Z,42.86
2018-08-13T03:14:33.394Z,42.83
2018-08-13T03:15:05.470Z,42.86
2018-08-13T03:15:37.557Z,42.96
2018-08-13T03:16:09.632Z,42.83
2018-08-13T03:16:41.677Z,42.86
2018-08-13T03:17:13.748Z,42.86
2018-08-13T03:17:45.807Z,42.96
2018-08-13T03:18:17.905Z,42.86
2018-08-13T03:18:49.955Z,42.83
2018-08-13T03:19:22.025Z,42.83
2018-08-13T03:19:54.845Z,42.86
2018-08-13T03:20:26.905Z,42.86
2018-08-13T03:20:58.959Z,42.86
2018-08-13T03:21:31.037Z,42.86
2018-08-13T03:22:03.083Z,42.76
2018-08-13T03:22:35.167Z,42.83
2018-08-13T03:23:07.229Z,42.86
2018-08-13T03:23:39.249Z,42.86
2018-08-13T03:24:11.310Z,42.83
2018-08-13T03:24:43.361Z,42.93
2018-08-13T03:25:15.428Z,42.83
2018-08-13T03:25:47.491Z,42.93
2018-08-13T03:26:19.528Z,42.93
2018-08-13T03:26:51.600Z,42.74
2018-08-13T03:27:23.741Z,42.86
2018-08-13T03:27:55.820Z,42.96
2018-08-13T03:28:27.891Z,42.86
2018-08-13T03:28:59.935Z,42.86
2018-08-13T03:29:32.009Z,42.83
2018-08-13T03:30:04.098Z,42.83
2018-08-13T03:30:36.159Z,42.83
2018-08-13T03:31:08.276Z,42.86
2018-08-13T03:31:40.345Z,42.86
2018-08-13T03:32:12.419Z,42.96
2018-08-13T03:32:44.467Z,42.93
2018-08-13T03:33:16.630Z,42.93
2018-08-13T03:33:48.658Z,42.96
2018-08-13T03:34:20.712Z,42.83
2018-08-13T03:34:52.809Z,42.83
2018-08-13T03:35:25.004Z,42.83
2018-08-13T03:35:57.071Z,42.83
2018-08-13T03:36:29.136Z,42.86
2018-08-13T03:37:01.189Z,42.83
2018-08-13T03:37:33.215Z,42.83
2018-08-13T03:38:05.282Z,42.83
2018-08-13T03:38:37.328Z,42.93
2018-08-13T03:39:09.398Z,42.93
2018-08-13T03:39:41.452Z,42.83
2018-08-13T03:40:13.524Z,42.83
2018-08-13T03:40:45.551Z,42.83
2018-08-13T03:41:17.638Z,42.83
2018-08-13T03:41:49.742Z,42.96
2018-08-13T03:42:21.786Z,42.83
2018-08-13T03:42:53.862Z,42.83
2018-08-13T03:43:25.912Z,42.83
2018-08-13T03:43:57.960Z,42.83
2018-08-13T03:44:30.128Z,42.93
2018-08-13T03:45:02.132Z,42.83
2018-08-13T03:45:34.205Z,42.83
2018-08-13T03:46:06.257Z,42.93
2018-08-13T03:46:38.461Z,42.93
2018-08-13T03:47:10.505Z,42.93
2018-08-13T03:47:42.541Z,42.93
2018-08-13T03:48:14.587Z,42.93
2018-08-13T03:48:46.620Z,43.13
2018-08-13T03:49:18.772Z,42.93
2018-08-13T03:49:50.829Z,42.93
2018-08-13T03:50:22.852Z,42.93
2018-08-13T03:50:54.916Z,43.03
2018-08-13T03:51:27.048Z,42.93
2018-08-13T03:51:59.206Z,42.93
2018-08-13T03:52:31.270Z,42.93
2018-08-13T03:53:03.325Z,42.93
2018-08-13T03:53:35.402Z,43.03
2018-08-13T03:54:07.432Z,42.83
2018-08-13T03:54:39.509Z,42.93
2018-08-13T03:55:11.576Z,42.86
2018-08-13T03:55:43.672Z,43.03
2018-08-13T03:56:15.738Z,42.93
2018-08-13T03:56:47.814Z,43.13
2018-08-13T03:57:19.888Z,42.93
2018-08-13T03:57:51.956Z,43.03
2018-08-13T03:58:24.023Z,43.03
2018-08-13T03:58:56.055Z,43.15
2018-08-13T03:59:28.121Z,42.93
2018-08-13T04:00:00.187Z,42.83
2018-08-13T04:00:32.270Z,43.03
2018-08-13T04:01:04.449Z,42.83
2018-08-13T04:01:36.547Z,42.93
2018-08-13T04:02:08.632Z,42.93
2018-08-13T04:02:40.716Z,43.03
2018-08-13T04:03:12.805Z,43.03
2018-08-13T04:03:44.901Z,43.03
2018-08-13T04:04:16.925Z,43.03
2018-08-13T04:04:49.007Z,43.03
2018-08-13T04:05:21.037Z,42.93
2018-08-13T04:05:53.116Z,43.03
2018-08-13T04:06:25.268Z,43.23
2018-08-13T04:06:57.289Z,43.03
2018-08-13T04:07:29.335Z,43.13
2018-08-13T04:08:01.408Z,43.13
2018-08-13T04:08:33.478Z,43.23
2018-08-13T04:09:05.529Z,43.13
2018-08-13T04:09:37.613Z,43.13
2018-08-13T04:10:09.728Z,43.23
2018-08-13T04:10:41.780Z,43.23
2018-08-13T04:11:13.807Z,43.13
2018-08-13T04:11:45.926Z,43.23
2018-08-13T04:12:17.971Z,43.03
2018-08-13T04:12:50.148Z,43.23
2018-08-13T04:13:22.345Z,43.13
2018-08-13T04:13:54.391Z,43.13
2018-08-13T04:14:26.449Z,43.23
2018-08-13T04:14:58.509Z,43.23
2018-08-13T04:15:30.554Z,43.23
2018-08-13T04:16:02.701Z,43.13
2018-08-13T04:16:34.864Z,43.13
2018-08-13T04:17:06.964Z,43.03
2018-08-13T04:17:38.976Z,42.93
2018-08-13T04:18:11.059Z,43.13
2018-08-13T04:18:43.153Z,43.23
2018-08-13T04:19:16.032Z,43.13
2018-08-13T04:19:48.046Z,42.93
2018-08-13T04:20:20.133Z,43.23
2018-08-13T04:20:52.282Z,42.83
2018-08-13T04:21:24.346Z,43.13
2018-08-13T04:21:56.390Z,43.13
2018-08-13T04:22:28.517Z,42.83
2018-08-13T04:23:00.586Z,43.03
2018-08-13T04:23:32.634Z,43.03
2018-08-13T04:24:04.704Z,43.03
2018-08-13T04:24:36.748Z,42.74
2018-08-13T04:25:08.904Z,43.03
2018-08-13T04:25:40.965Z,42.93
2018-08-13T04:26:13.130Z,42.93
2018-08-13T04:26:45.203Z,42.83
2018-08-13T04:27:17.252Z,42.93
2018-08-13T04:27:49.310Z,42.93
2018-08-13T04:28:21.337Z,42.93
2018-08-13T04:28:53.414Z,42.83
2018-08-13T04:29:25.520Z,42.93
2018-08-13T04:29:57.652Z,42.93
2018-08-13T04:30:29.761Z,43.13
2018-08-13T04:31:02.456Z,42.93
2018-08-13T04:31:34.574Z,43.03
2018-08-13T04:32:06.614Z,43.32
2018-08-13T04:32:38.761Z,42.83
2018-08-13T04:33:10.795Z,42.83
2018-08-13T04:33:42.849Z,42.74
2018-08-13T04:34:14.970Z,42.83
2018-08-13T04:34:47.113Z,43.13
2018-08-13T04:35:19.170Z,42.74
2018-08-13T04:35:51.246Z,42.74
2018-08-13T04:36:23.325Z,42.74
2018-08-13T04:36:55.365Z,42.93
2018-08-13T04:37:27.425Z,43.32
2018-08-13T04:37:59.513Z,42.83
2018-08-13T04:38:31.616Z,43.13
2018-08-13T04:39:03.664Z,42.83
2018-08-13T04:39:35.674Z,42.74
2018-08-13T04:40:07.744Z,43.13
2018-08-13T04:40:39.792Z,42.74
2018-08-13T04:41:11.846Z,42.83
2018-08-13T04:41:43.897Z,43.23
2018-08-13T04:42:16.011Z,42.83
2018-08-13T04:42:48.186Z,43.23
2018-08-13T04:43:20.251Z,42.74
2018-08-13T04:43:53.155Z,42.74
2018-08-13T04:44:25.228Z,42.93
2018-08-13T04:44:57.284Z,42.74
2018-08-13T04:45:29.367Z,43.32
2018-08-13T04:46:01.450Z,42.83
2018-08-13T04:46:33.468Z,43.13
2018-08-13T04:47:05.523Z,42.93
2018-08-13T04:47:37.697Z,42.74
2018-08-13T04:48:09.739Z,42.74
2018-08-13T04:48:41.812Z,42.83
2018-08-13T04:49:13.900Z,42.83
2018-08-13T04:49:45.965Z,43.03
2018-08-13T04:50:18.029Z,42.93
2018-08-13T04:50:50.075Z,42.86
2018-08-13T04:51:22.135Z,42.93
2018-08-13T04:51:54.195Z,42.93
2018-08-13T04:52:26.258Z,43.03
2018-08-13T04:52:58.343Z,42.83
2018-08-13T04:53:30.411Z,42.93
2018-08-13T04:54:02.503Z,42.93
2018-08-13T04:54:34.588Z,43.13
2018-08-13T04:55:06.636Z,42.93
2018-08-13T04:55:38.695Z,43.23
2018-08-13T04:56:10.765Z,43.13
2018-08-13T04:56:42.823Z,43.03
2018-08-13T04:57:14.878Z,42.93
2018-08-13T04:57:46.902Z,42.74
2018-08-13T04:58:19.022Z,42.83
2018-08-13T04:58:51.074Z,43.03
2018-08-13T04:59:23.075Z,43.13
2018-08-13T04:59:55.133Z,42.83
2018-08-13T05:00:27.190Z,43.23
2018-08-13T05:00:59.374Z,43.03
2018-08-13T05:01:31.647Z,43.23
2018-08-13T05:02:03.750Z,43.03
2018-08-13T05:02:35.772Z,43.23
2018-08-13T05:03:07.827Z,42.96
2018-08-13T05:03:39.883Z,43.15
2018-08-13T05:04:11.938Z,42.86
2018-08-13T05:04:44.003Z,42.96
2018-08-13T05:05:16.030Z,43.23
2018-08-13T05:05:48.105Z,42.96
2018-08-13T05:06:20.135Z,42.96
2018-08-13T05:06:52.215Z,43.05
2018-08-13T05:07:24.320Z,42.96
2018-08-13T05:07:56.647Z,42.96
2018-08-13T05:08:28.720Z,43.05
2018-08-13T05:09:00.769Z,42.96
2018-08-13T05:09:32.951Z,42.86
2018-08-13T05:10:05.013Z,42.86
2018-08-13T05:10:37.054Z,42.96
2018-08-13T05:11:09.102Z,42.86
2018-08-13T05:11:41.153Z,42.86
2018-08-13T05:12:13.344Z,42.96
2018-08-13T05:12:45.371Z,42.86
2018-08-13T05:13:17.415Z,42.86
2018-08-13T05:13:49.473Z,42.76
2018-08-13T05:14:21.550Z,42.96
2018-08-13T05:14:53.629Z,42.86
2018-08-13T05:15:25.695Z,42.96
2018-08-13T05:15:57.860Z,42.86
2018-08-13T05:16:29.903Z,42.86
2018-08-13T05:17:01.925Z,42.86
2018-08-13T05:17:33.998Z,42.96
2018-08-13T05:18:06.015Z,42.86
2018-08-13T05:18:38.152Z,42.86
2018-08-13T05:19:10.162Z,42.76
2018-08-13T05:19:42.168Z,42.66
2018-08-13T05:20:14.232Z,42.76
2018-08-13T05:20:46.269Z,42.47
2018-08-13T05:21:18.506Z,42.78
2018-08-13T05:21:50.425Z,42.68
2018-08-13T05:22:22.476Z,42.68
2018-08-13T05:22:54.493Z,42.68
2018-08-13T05:23:26.517Z,42.76
2018-08-13T05:23:58.582Z,42.88
2018-08-13T05:24:30.662Z,42.78
2018-08-13T05:25:02.734Z,42.68
2018-08-13T05:25:34.812Z,42.68
2018-08-13T05:26:06.881Z,42.57
2018-08-13T05:26:38.977Z,42.68
2018-08-13T05:27:11.098Z,42.78
2018-08-13T05:27:43.162Z,42.78
2018-08-13T05:28:15.226Z,42.78
2018-08-13T05:28:47.267Z,42.59
2018-08-13T05:29:19.322Z,42.68
2018-08-13T05:29:51.518Z,42.59
2018-08-13T05:30:23.781Z,42.68
2018-08-13T05:30:56.377Z,42.68
2018-08-13T05:31:29.450Z,42.68
2018-08-13T05:32:01.658Z,42.68
2018-08-13T05:32:33.857Z,42.68
2018-08-13T05:33:05.921Z,42.68
2018-08-13T05:33:37.941Z,42.59
2018-08-13T05:34:10.015Z,42.68
2018-08-13T05:34:42.103Z,42.68
2018-08-13T05:35:14.139Z,42.68
2018-08-13T05:35:46.191Z,42.68
2018-08-13T05:36:18.268Z,42.49
2018-08-13T05:36:50.269Z,42.78
2018-08-13T05:37:22.343Z,42.59
2018-08-13T05:37:54.406Z,42.59
2018-08-13T05:38:26.471Z,42.78
2018-08-13T05:38:58.490Z,42.59
2018-08-13T05:39:30.590Z,42.78
2018-08-13T05:40:02.787Z,42.78
2018-08-13T05:40:36.601Z,42.78
2018-08-13T05:41:09.337Z,42.68
2018-08-13T05:41:41.569Z,42.68
2018-08-13T05:42:13.683Z,42.59
2018-08-13T05:42:45.834Z,42.78
2018-08-13T05:43:17.995Z,42.78
2018-08-13T05:43:50.062Z,42.68
2018-08-13T05:44:22.208Z,42.78
2018-08-13T05:44:54.541Z,42.68
2018-08-13T05:45:26.589Z,42.68
2018-08-13T05:45:58.695Z,42.78
2018-08-13T05:46:31.618Z,42.59
2018-08-13T05:47:03.695Z,42.78
2018-08-13T05:47:35.779Z,42.78
2018-08-13T05:48:07.907Z,42.78
2018-08-13T05:48:39.939Z,42.78
2018-08-13T05:49:11.979Z,42.68
2018-08-13T05:49:44.045Z,42.78
2018-08-13T05:50:16.085Z,42.68
2018-08-13T05:50:48.145Z,42.78
2018-08-13T05:51:20.203Z,42.68
